sensor_id;sensor_type;location;lat;lon;timestamp;P1;P2;P0
77777;PMS5003;66966;-34.746;138.604;2023-07-31T00:01:01;6;3;
77777;PMS5003;66966;-34.746;138.604;2023-07-31T00:03:26;1;1;
77777;PMS5003;66966;-34.746;138.604;2023-07-31T00:05:52;5;3;
77777;PMS5003;66966;-34.746;138.604;2023-07-31T00:08:17;5;4;
77777;PMS5003;66966;-34.746;138.604;2023-07-31T00:10:43;2;1;
77777;PMS5003;66966;-34.746;138.604;2023-07-31T00:13:09;4;3;
77777;PMS5003;66966;-34.746;138.604;2023-07-31T00:15:34;3;2;
77777;PMS5003;66966;-34.746;138.604;2023-07-31T00:18:00;2;2;
77777;PMS5003;66966;-34.746;138.604;2023-07-31T00:20:26;2;1;
77777;PMS5003;66966;-34.746;138.604;2023-07-31T00:22:52;2;1;
77777;PMS5003;66966;-34.746;138.604;2023-07-31T00:25:17;3;2;
77777;PMS5003;66966;-34.746;138.604;2023-07-31T00:27:43;4;3;
77777;PMS5003;66966;-34.746;138.604;2023-07-31T00:30:08;2;2;
77777;PMS5003;66966;-34.746;138.604;2023-07-31T00:32:34;2;2;
77777;PMS5003;66966;-34.746;138.604;2023-07-31T00:34:59;2;0;
77777;PMS5003;66966;-34.746;138.604;2023-07-31T00:37:25;2;2;
77777;PMS5003;66966;-34.746;138.604;2023-07-31T00:39:50;1;1;
77777;PMS5003;66966;-34.746;138.604;2023-07-31T00:42:16;2;1;
77777;PMS5003;66966;-34.746;138.604;2023-07-31T00:44:42;2;0;
77777;PMS5003;66966;-34.746;138.604;2023-07-31T00:47:08;2;2;
77777;PMS5003;66966;-34.746;138.604;2023-07-31T00:49:33;1;0;
77777;PMS5003;66966;-34.746;138.604;2023-07-31T00:51:59;3;2;
77777;PMS5003;66966;-34.746;138.604;2023-07-31T00:54:24;3;2;
77777;PMS5003;66966;-34.746;138.604;2023-07-31T00:56:50;2;2;
77777;PMS5003;66966;-34.746;138.604;2023-07-31T00:59:16;3;2;
77777;PMS5003;66966;-34.746;138.604;2023-07-31T01:01:41;3;1;
77777;PMS5003;66966;-34.746;138.604;2023-07-31T01:04:07;4;1;
77777;PMS5003;66966;-34.746;138.604;2023-07-31T01:06:35;2;1;
77777;PMS5003;66966;-34.746;138.604;2023-07-31T01:08:59;0;0;
77777;PMS5003;66966;-34.746;138.604;2023-07-31T01:11:25;2;1;
77777;PMS5003;66966;-34.746;138.604;2023-07-31T01:13:49;1;0;
77777;PMS5003;66966;-34.746;138.604;2023-07-31T01:16:15;2;1;
77777;PMS5003;66966;-34.746;138.604;2023-07-31T01:18:40;2;2;
77777;PMS5003;66966;-34.746;138.604;2023-07-31T01:21:11;0;0;
77777;PMS5003;66966;-34.746;138.604;2023-07-31T01:23:37;1;1;
77777;PMS5003;66966;-34.746;138.604;2023-07-31T01:26:01;2;1;
77777;PMS5003;66966;-34.746;138.604;2023-07-31T01:28:25;3;2;
77777;PMS5003;66966;-34.746;138.604;2023-07-31T01:30:48;1;1;
77777;PMS5003;66966;-34.746;138.604;2023-07-31T01:33:14;0;0;
77777;PMS5003;66966;-34.746;138.604;2023-07-31T01:35:42;2;1;
77777;PMS5003;66966;-34.746;138.604;2023-07-31T01:38:05;0;0;
77777;PMS5003;66966;-34.746;138.604;2023-07-31T01:40:31;2;1;
77777;PMS5003;66966;-34.746;138.604;2023-07-31T01:42:57;1;1;
77777;PMS5003;66966;-34.746;138.604;2023-07-31T01:45:22;1;1;
77777;PMS5003;66966;-34.746;138.604;2023-07-31T01:47:48;1;0;
77777;PMS5003;66966;-34.746;138.604;2023-07-31T01:50:14;3;2;
77777;PMS5003;66966;-34.746;138.604;2023-07-31T01:52:39;1;1;
77777;PMS5003;66966;-34.746;138.604;2023-07-31T01:55:05;4;2;
77777;PMS5003;66966;-34.746;138.604;2023-07-31T01:57:30;5;1;
77777;PMS5003;66966;-34.746;138.604;2023-07-31T01:59:56;2;2;
77777;PMS5003;66966;-34.746;138.604;2023-07-31T02:02:22;1;1;
77777;PMS5003;66966;-34.746;138.604;2023-07-31T02:04:47;1;1;
77777;PMS5003;66966;-34.746;138.604;2023-07-31T02:07:12;8;6;
77777;PMS5003;66966;-34.746;138.604;2023-07-31T02:09:37;9;9;
77777;PMS5003;66966;-34.746;138.604;2023-07-31T02:12:04;6;4;
77777;PMS5003;66966;-34.746;138.604;2023-07-31T02:14:29;4;3;
77777;PMS5003;66966;-34.746;138.604;2023-07-31T02:16:54;4;3;
77777;PMS5003;66966;-34.746;138.604;2023-07-31T02:19:20;1;0;
77777;PMS5003;66966;-34.746;138.604;2023-07-31T02:21:45;3;3;
77777;PMS5003;66966;-34.746;138.604;2023-07-31T02:24:11;2;1;
77777;PMS5003;66966;-34.746;138.604;2023-07-31T02:26:36;1;1;
77777;PMS5003;66966;-34.746;138.604;2023-07-31T02:29:02;2;2;
77777;PMS5003;66966;-34.746;138.604;2023-07-31T02:31:28;1;1;
77777;PMS5003;66966;-34.746;138.604;2023-07-31T02:33:53;5;1;
77777;PMS5003;66966;-34.746;138.604;2023-07-31T02:36:19;2;0;
77777;PMS5003;66966;-34.746;138.604;2023-07-31T02:38:44;1;1;
77777;PMS5003;66966;-34.746;138.604;2023-07-31T02:41:10;3;3;
77777;PMS5003;66966;-34.746;138.604;2023-07-31T02:43:35;3;1;
77777;PMS5003;66966;-34.746;138.604;2023-07-31T02:46:01;5;1;
77777;PMS5003;66966;-34.746;138.604;2023-07-31T02:48:26;1;1;
77777;PMS5003;66966;-34.746;138.604;2023-07-31T02:50:53;1;1;
77777;PMS5003;66966;-34.746;138.604;2023-07-31T02:53:17;0;0;
77777;PMS5003;66966;-34.746;138.604;2023-07-31T02:55:43;1;1;
77777;PMS5003;66966;-34.746;138.604;2023-07-31T02:58:08;2;1;
77777;PMS5003;66966;-34.746;138.604;2023-07-31T03:00:34;2;0;
77777;PMS5003;66966;-34.746;138.604;2023-07-31T03:02:59;0;0;
77777;PMS5003;66966;-34.746;138.604;2023-07-31T03:05:25;0;0;
77777;PMS5003;66966;-34.746;138.604;2023-07-31T03:07:50;1;0;
77777;PMS5003;66966;-34.746;138.604;2023-07-31T03:10:16;1;1;
77777;PMS5003;66966;-34.746;138.604;2023-07-31T03:12:42;1;0;
77777;PMS5003;66966;-34.746;138.604;2023-07-31T03:15:08;0;0;
77777;PMS5003;66966;-34.746;138.604;2023-07-31T03:17:33;0;0;
77777;PMS5003;66966;-34.746;138.604;2023-07-31T03:19:58;0;0;
77777;PMS5003;66966;-34.746;138.604;2023-07-31T03:22:25;0;0;
77777;PMS5003;66966;-34.746;138.604;2023-07-31T03:24:50;0;0;
77777;PMS5003;66966;-34.746;138.604;2023-07-31T03:27:15;1;0;
77777;PMS5003;66966;-34.746;138.604;2023-07-31T03:29:41;1;0;
77777;PMS5003;66966;-34.746;138.604;2023-07-31T03:32:07;0;0;
77777;PMS5003;66966;-34.746;138.604;2023-07-31T03:34:32;0;0;
77777;PMS5003;66966;-34.746;138.604;2023-07-31T03:36:58;2;1;
77777;PMS5003;66966;-34.746;138.604;2023-07-31T03:39:23;0;0;
77777;PMS5003;66966;-34.746;138.604;2023-07-31T03:41:49;1;0;
77777;PMS5003;66966;-34.746;138.604;2023-07-31T03:44:15;0;0;
77777;PMS5003;66966;-34.746;138.604;2023-07-31T03:46:40;1;0;
77777;PMS5003;66966;-34.746;138.604;2023-07-31T03:49:06;0;0;
77777;PMS5003;66966;-34.746;138.604;2023-07-31T03:51:31;0;0;
77777;PMS5003;66966;-34.746;138.604;2023-07-31T03:53:57;0;0;
77777;PMS5003;66966;-34.746;138.604;2023-07-31T03:56:23;0;0;
77777;PMS5003;66966;-34.746;138.604;2023-07-31T03:58:48;2;1;
77777;PMS5003;66966;-34.746;138.604;2023-07-31T04:01:14;2;1;
77777;PMS5003;66966;-34.746;138.604;2023-07-31T04:03:39;0;0;
77777;PMS5003;66966;-34.746;138.604;2023-07-31T04:06:04;5;4;
77777;PMS5003;66966;-34.746;138.604;2023-07-31T04:08:30;1;0;
77777;PMS5003;66966;-34.746;138.604;2023-07-31T04:10:56;2;0;
77777;PMS5003;66966;-34.746;138.604;2023-07-31T04:13:22;1;0;
77777;PMS5003;66966;-34.746;138.604;2023-07-31T04:15:48;1;1;
77777;PMS5003;66966;-34.746;138.604;2023-07-31T04:18:12;0;0;
77777;PMS5003;66966;-34.746;138.604;2023-07-31T04:20:38;4;1;
77777;PMS5003;66966;-34.746;138.604;2023-07-31T04:23:04;2;0;
77777;PMS5003;66966;-34.746;138.604;2023-07-31T04:25:29;3;1;
77777;PMS5003;66966;-34.746;138.604;2023-07-31T04:27:55;0;0;
77777;PMS5003;66966;-34.746;138.604;2023-07-31T04:30:20;1;0;
77777;PMS5003;66966;-34.746;138.604;2023-07-31T04:32:46;2;2;
77777;PMS5003;66966;-34.746;138.604;2023-07-31T04:35:12;2;1;
77777;PMS5003;66966;-34.746;138.604;2023-07-31T04:37:37;0;0;
77777;PMS5003;66966;-34.746;138.604;2023-07-31T04:40:02;0;0;
77777;PMS5003;66966;-34.746;138.604;2023-07-31T04:42:28;2;0;
77777;PMS5003;66966;-34.746;138.604;2023-07-31T04:44:54;1;0;
77777;PMS5003;66966;-34.746;138.604;2023-07-31T04:47:19;1;1;
77777;PMS5003;66966;-34.746;138.604;2023-07-31T04:49:45;1;1;
77777;PMS5003;66966;-34.746;138.604;2023-07-31T04:52:10;1;0;
77777;PMS5003;66966;-34.746;138.604;2023-07-31T04:54:36;1;1;
77777;PMS5003;66966;-34.746;138.604;2023-07-31T04:57:01;1;1;
77777;PMS5003;66966;-34.746;138.604;2023-07-31T04:59:28;2;1;
77777;PMS5003;66966;-34.746;138.604;2023-07-31T05:01:53;0;0;
77777;PMS5003;66966;-34.746;138.604;2023-07-31T05:04:18;3;2;
77777;PMS5003;66966;-34.746;138.604;2023-07-31T05:06:44;0;0;
77777;PMS5003;66966;-34.746;138.604;2023-07-31T05:09:09;0;0;
77777;PMS5003;66966;-34.746;138.604;2023-07-31T05:11:35;1;0;
77777;PMS5003;66966;-34.746;138.604;2023-07-31T05:14:00;1;0;
77777;PMS5003;66966;-34.746;138.604;2023-07-31T05:16:26;0;0;
77777;PMS5003;66966;-34.746;138.604;2023-07-31T05:18:51;0;0;
77777;PMS5003;66966;-34.746;138.604;2023-07-31T05:21:17;2;1;
77777;PMS5003;66966;-34.746;138.604;2023-07-31T05:23:43;2;2;
77777;PMS5003;66966;-34.746;138.604;2023-07-31T05:26:08;2;1;
77777;PMS5003;66966;-34.746;138.604;2023-07-31T05:28:34;1;0;
77777;PMS5003;66966;-34.746;138.604;2023-07-31T05:30:59;3;1;
77777;PMS5003;66966;-34.746;138.604;2023-07-31T05:33:26;0;0;
77777;PMS5003;66966;-34.746;138.604;2023-07-31T05:35:50;0;0;
77777;PMS5003;66966;-34.746;138.604;2023-07-31T05:38:16;0;0;
77777;PMS5003;66966;-34.746;138.604;2023-07-31T05:40:43;3;2;
77777;PMS5003;66966;-34.746;138.604;2023-07-31T05:43:07;1;1;
77777;PMS5003;66966;-34.746;138.604;2023-07-31T05:45:32;0;0;
77777;PMS5003;66966;-34.746;138.604;2023-07-31T05:47:58;1;1;
77777;PMS5003;66966;-34.746;138.604;2023-07-31T05:50:23;2;1;
77777;PMS5003;66966;-34.746;138.604;2023-07-31T05:52:49;2;1;
77777;PMS5003;66966;-34.746;138.604;2023-07-31T05:55:15;0;0;
77777;PMS5003;66966;-34.746;138.604;2023-07-31T05:57:40;1;1;
77777;PMS5003;66966;-34.746;138.604;2023-07-31T06:00:07;2;1;
77777;PMS5003;66966;-34.746;138.604;2023-07-31T06:02:32;0;0;
77777;PMS5003;66966;-34.746;138.604;2023-07-31T06:04:57;1;0;
77777;PMS5003;66966;-34.746;138.604;2023-07-31T06:07:22;2;0;
77777;PMS5003;66966;-34.746;138.604;2023-07-31T06:09:48;1;0;
77777;PMS5003;66966;-34.746;138.604;2023-07-31T06:12:14;0;0;
77777;PMS5003;66966;-34.746;138.604;2023-07-31T06:14:39;1;0;
77777;PMS5003;66966;-34.746;138.604;2023-07-31T06:17:05;1;0;
77777;PMS5003;66966;-34.746;138.604;2023-07-31T06:19:31;2;1;
77777;PMS5003;66966;-34.746;138.604;2023-07-31T06:21:56;0;0;
77777;PMS5003;66966;-34.746;138.604;2023-07-31T06:24:22;2;1;
77777;PMS5003;66966;-34.746;138.604;2023-07-31T06:26:47;2;0;
77777;PMS5003;66966;-34.746;138.604;2023-07-31T06:29:13;1;1;
77777;PMS5003;66966;-34.746;138.604;2023-07-31T06:31:39;1;1;
77777;PMS5003;66966;-34.746;138.604;2023-07-31T06:34:04;1;1;
77777;PMS5003;66966;-34.746;138.604;2023-07-31T06:36:30;0;0;
77777;PMS5003;66966;-34.746;138.604;2023-07-31T06:38:55;2;0;
77777;PMS5003;66966;-34.746;138.604;2023-07-31T06:41:20;1;0;
77777;PMS5003;66966;-34.746;138.604;2023-07-31T06:43:46;0;0;
77777;PMS5003;66966;-34.746;138.604;2023-07-31T06:46:12;1;0;
77777;PMS5003;66966;-34.746;138.604;2023-07-31T06:48:38;0;0;
77777;PMS5003;66966;-34.746;138.604;2023-07-31T06:51:03;1;0;
77777;PMS5003;66966;-34.746;138.604;2023-07-31T06:53:29;1;1;
77777;PMS5003;66966;-34.746;138.604;2023-07-31T06:55:54;1;1;
77777;PMS5003;66966;-34.746;138.604;2023-07-31T06:58:20;0;0;
77777;PMS5003;66966;-34.746;138.604;2023-07-31T07:00:46;2;1;
77777;PMS5003;66966;-34.746;138.604;2023-07-31T07:03:11;1;0;
77777;PMS5003;66966;-34.746;138.604;2023-07-31T07:05:36;1;1;
77777;PMS5003;66966;-34.746;138.604;2023-07-31T07:08:02;0;0;
77777;PMS5003;66966;-34.746;138.604;2023-07-31T07:10:28;1;1;
77777;PMS5003;66966;-34.746;138.604;2023-07-31T07:12:54;0;0;
77777;PMS5003;66966;-34.746;138.604;2023-07-31T07:15:19;1;1;
77777;PMS5003;66966;-34.746;138.604;2023-07-31T07:17:44;0;0;
77777;PMS5003;66966;-34.746;138.604;2023-07-31T07:20:10;0;0;
77777;PMS5003;66966;-34.746;138.604;2023-07-31T07:22:35;0;0;
77777;PMS5003;66966;-34.746;138.604;2023-07-31T07:25:02;2;1;
77777;PMS5003;66966;-34.746;138.604;2023-07-31T07:27:27;3;1;
77777;PMS5003;66966;-34.746;138.604;2023-07-31T07:29:52;1;1;
77777;PMS5003;66966;-34.746;138.604;2023-07-31T07:32:18;6;3;
77777;PMS5003;66966;-34.746;138.604;2023-07-31T07:34:44;2;1;
77777;PMS5003;66966;-34.746;138.604;2023-07-31T07:37:09;1;1;
77777;PMS5003;66966;-34.746;138.604;2023-07-31T07:39:35;1;1;
77777;PMS5003;66966;-34.746;138.604;2023-07-31T07:42:00;2;2;
77777;PMS5003;66966;-34.746;138.604;2023-07-31T07:44:26;3;1;
77777;PMS5003;66966;-34.746;138.604;2023-07-31T07:46:51;1;1;
77777;PMS5003;66966;-34.746;138.604;2023-07-31T07:49:17;0;0;
77777;PMS5003;66966;-34.746;138.604;2023-07-31T07:51:43;2;2;
77777;PMS5003;66966;-34.746;138.604;2023-07-31T07:54:08;3;2;
77777;PMS5003;66966;-34.746;138.604;2023-07-31T07:56:34;1;1;
77777;PMS5003;66966;-34.746;138.604;2023-07-31T07:59:00;1;0;
77777;PMS5003;66966;-34.746;138.604;2023-07-31T08:01:25;4;2;
77777;PMS5003;66966;-34.746;138.604;2023-07-31T08:03:51;3;2;
77777;PMS5003;66966;-34.746;138.604;2023-07-31T08:06:16;3;2;
77777;PMS5003;66966;-34.746;138.604;2023-07-31T08:08:42;1;0;
77777;PMS5003;66966;-34.746;138.604;2023-07-31T08:11:08;3;3;
77777;PMS5003;66966;-34.746;138.604;2023-07-31T08:13:34;1;1;
77777;PMS5003;66966;-34.746;138.604;2023-07-31T08:15:59;0;0;
77777;PMS5003;66966;-34.746;138.604;2023-07-31T08:18:25;1;1;
77777;PMS5003;66966;-34.746;138.604;2023-07-31T08:20:50;1;0;
77777;PMS5003;66966;-34.746;138.604;2023-07-31T08:23:16;2;2;
77777;PMS5003;66966;-34.746;138.604;2023-07-31T08:25:42;1;1;
77777;PMS5003;66966;-34.746;138.604;2023-07-31T08:28:07;1;0;
77777;PMS5003;66966;-34.746;138.604;2023-07-31T08:30:33;1;1;
77777;PMS5003;66966;-34.746;138.604;2023-07-31T08:32:59;1;1;
77777;PMS5003;66966;-34.746;138.604;2023-07-31T08:35:24;2;2;
77777;PMS5003;66966;-34.746;138.604;2023-07-31T08:37:50;3;2;
77777;PMS5003;66966;-34.746;138.604;2023-07-31T08:40:15;11;11;
77777;PMS5003;66966;-34.746;138.604;2023-07-31T08:42:45;4;3;
77777;PMS5003;66966;-34.746;138.604;2023-07-31T08:45:07;4;2;
77777;PMS5003;66966;-34.746;138.604;2023-07-31T08:47:32;0;0;
77777;PMS5003;66966;-34.746;138.604;2023-07-31T08:49:58;2;1;
77777;PMS5003;66966;-34.746;138.604;2023-07-31T08:52:24;2;2;
77777;PMS5003;66966;-34.746;138.604;2023-07-31T08:54:49;3;3;
77777;PMS5003;66966;-34.746;138.604;2023-07-31T08:57:15;1;0;
77777;PMS5003;66966;-34.746;138.604;2023-07-31T08:59:41;5;5;
77777;PMS5003;66966;-34.746;138.604;2023-07-31T09:02:07;9;7;
77777;PMS5003;66966;-34.746;138.604;2023-07-31T09:04:32;12;11;
77777;PMS5003;66966;-34.746;138.604;2023-07-31T09:06:59;4;4;
77777;PMS5003;66966;-34.746;138.604;2023-07-31T09:09:23;4;4;
77777;PMS5003;66966;-34.746;138.604;2023-07-31T09:11:49;2;2;
77777;PMS5003;66966;-34.746;138.604;2023-07-31T09:14:15;2;2;
77777;PMS5003;66966;-34.746;138.604;2023-07-31T09:19:05;3;3;
77777;PMS5003;66966;-34.746;138.604;2023-07-31T09:21:31;1;1;
77777;PMS5003;66966;-34.746;138.604;2023-07-31T09:23:57;2;2;
77777;PMS5003;66966;-34.746;138.604;2023-07-31T09:26:29;3;3;
77777;PMS5003;66966;-34.746;138.604;2023-07-31T09:28:48;1;1;
77777;PMS5003;66966;-34.746;138.604;2023-07-31T09:31:13;3;3;
77777;PMS5003;66966;-34.746;138.604;2023-07-31T09:36:05;5;5;
77777;PMS5003;66966;-34.746;138.604;2023-07-31T09:38:31;6;6;
77777;PMS5003;66966;-34.746;138.604;2023-07-31T09:40:55;3;3;
77777;PMS5003;66966;-34.746;138.604;2023-07-31T09:43:21;3;3;
77777;PMS5003;66966;-34.746;138.604;2023-07-31T09:45:47;3;3;
77777;PMS5003;66966;-34.746;138.604;2023-07-31T09:48:13;1;1;
77777;PMS5003;66966;-34.746;138.604;2023-07-31T09:50:39;2;2;
77777;PMS5003;66966;-34.746;138.604;2023-07-31T09:53:04;4;3;
77777;PMS5003;66966;-34.746;138.604;2023-07-31T09:55:29;2;2;
77777;PMS5003;66966;-34.746;138.604;2023-07-31T09:57:55;1;1;
77777;PMS5003;66966;-34.746;138.604;2023-07-31T10:00:20;2;1;
77777;PMS5003;66966;-34.746;138.604;2023-07-31T10:02:46;2;2;
77777;PMS5003;66966;-34.746;138.604;2023-07-31T10:05:12;1;0;
77777;PMS5003;66966;-34.746;138.604;2023-07-31T10:07:37;2;2;
77777;PMS5003;66966;-34.746;138.604;2023-07-31T10:10:03;1;1;
77777;PMS5003;66966;-34.746;138.604;2023-07-31T10:12:29;0;0;
77777;PMS5003;66966;-34.746;138.604;2023-07-31T10:14:55;1;1;
77777;PMS5003;66966;-34.746;138.604;2023-07-31T10:21:11;2;2;
77777;PMS5003;66966;-34.746;138.604;2023-07-31T10:21:22;2;2;
77777;PMS5003;66966;-34.746;138.604;2023-07-31T10:23:48;4;3;
77777;PMS5003;66966;-34.746;138.604;2023-07-31T10:26:13;3;2;
77777;PMS5003;66966;-34.746;138.604;2023-07-31T10:28:38;0;0;
77777;PMS5003;66966;-34.746;138.604;2023-07-31T10:31:04;2;2;
77777;PMS5003;66966;-34.746;138.604;2023-07-31T10:33:30;1;1;
77777;PMS5003;66966;-34.746;138.604;2023-07-31T10:38:23;1;1;
77777;PMS5003;66966;-34.746;138.604;2023-07-31T10:40:47;0;0;
77777;PMS5003;66966;-34.746;138.604;2023-07-31T10:45:38;3;3;
77777;PMS5003;66966;-34.746;138.604;2023-07-31T10:48:04;1;1;
77777;PMS5003;66966;-34.746;138.604;2023-07-31T10:50:30;4;3;
77777;PMS5003;66966;-34.746;138.604;2023-07-31T10:52:56;3;3;
77777;PMS5003;66966;-34.746;138.604;2023-07-31T10:55:27;3;2;
77777;PMS5003;66966;-34.746;138.604;2023-07-31T10:57:47;2;0;
77777;PMS5003;66966;-34.746;138.604;2023-07-31T11:00:18;2;2;
77777;PMS5003;66966;-34.746;138.604;2023-07-31T11:02:38;3;2;
77777;PMS5003;66966;-34.746;138.604;2023-07-31T11:05:06;2;1;
77777;PMS5003;66966;-34.746;138.604;2023-07-31T11:09:54;1;1;
77777;PMS5003;66966;-34.746;138.604;2023-07-31T11:12:20;3;2;
77777;PMS5003;66966;-34.746;138.604;2023-07-31T11:17:11;0;0;
77777;PMS5003;66966;-34.746;138.604;2023-07-31T11:19:37;3;2;
77777;PMS5003;66966;-34.746;138.604;2023-07-31T11:22:04;1;0;
77777;PMS5003;66966;-34.746;138.604;2023-07-31T11:24:28;0;0;
77777;PMS5003;66966;-34.746;138.604;2023-07-31T11:26:54;2;2;
77777;PMS5003;66966;-34.746;138.604;2023-07-31T11:29:20;1;1;
77777;PMS5003;66966;-34.746;138.604;2023-07-31T11:31:46;1;1;
77777;PMS5003;66966;-34.746;138.604;2023-07-31T11:34:11;2;0;
77777;PMS5003;66966;-34.746;138.604;2023-07-31T11:36:36;2;1;
77777;PMS5003;66966;-34.746;138.604;2023-07-31T11:39:05;5;3;
77777;PMS5003;66966;-34.746;138.604;2023-07-31T11:41:28;4;3;
77777;PMS5003;66966;-34.746;138.604;2023-07-31T11:46:19;3;3;
77777;PMS5003;66966;-34.746;138.604;2023-07-31T11:48:44;1;1;
77777;PMS5003;66966;-34.746;138.604;2023-07-31T11:51:11;5;4;
77777;PMS5003;66966;-34.746;138.604;2023-07-31T11:53:36;5;3;
77777;PMS5003;66966;-34.746;138.604;2023-07-31T11:56:01;2;2;
77777;PMS5003;66966;-34.746;138.604;2023-07-31T11:58:27;2;2;
77777;PMS5003;66966;-34.746;138.604;2023-07-31T12:00:53;1;1;
77777;PMS5003;66966;-34.746;138.604;2023-07-31T12:03:18;3;2;
77777;PMS5003;66966;-34.746;138.604;2023-07-31T12:05:44;7;5;
77777;PMS5003;66966;-34.746;138.604;2023-07-31T12:08:10;4;2;
77777;PMS5003;66966;-34.746;138.604;2023-07-31T12:10:36;7;6;
77777;PMS5003;66966;-34.746;138.604;2023-07-31T12:13:02;3;3;
77777;PMS5003;66966;-34.746;138.604;2023-07-31T12:15:31;5;4;
77777;PMS5003;66966;-34.746;138.604;2023-07-31T12:17:52;9;8;
77777;PMS5003;66966;-34.746;138.604;2023-07-31T12:20:18;6;6;
77777;PMS5003;66966;-34.746;138.604;2023-07-31T12:22:44;7;7;
77777;PMS5003;66966;-34.746;138.604;2023-07-31T12:25:14;13;12;
77777;PMS5003;66966;-34.746;138.604;2023-07-31T12:27:34;14;13;
77777;PMS5003;66966;-34.746;138.604;2023-07-31T12:29:59;15;13;
77777;PMS5003;66966;-34.746;138.604;2023-07-31T12:32:25;13;13;
77777;PMS5003;66966;-34.746;138.604;2023-07-31T12:34:51;8;8;
77777;PMS5003;66966;-34.746;138.604;2023-07-31T12:37:18;11;10;
77777;PMS5003;66966;-34.746;138.604;2023-07-31T12:39:42;9;9;
77777;PMS5003;66966;-34.746;138.604;2023-07-31T12:42:07;12;12;
77777;PMS5003;66966;-34.746;138.604;2023-07-31T12:44:33;15;12;
77777;PMS5003;66966;-34.746;138.604;2023-07-31T12:46:59;14;14;
77777;PMS5003;66966;-34.746;138.604;2023-07-31T12:49:24;15;14;
77777;PMS5003;66966;-34.746;138.604;2023-07-31T12:51:50;12;12;
77777;PMS5003;66966;-34.746;138.604;2023-07-31T12:54:15;12;10;
77777;PMS5003;66966;-34.746;138.604;2023-07-31T12:56:41;10;10;
77777;PMS5003;66966;-34.746;138.604;2023-07-31T12:59:07;7;7;
77777;PMS5003;66966;-34.746;138.604;2023-07-31T13:01:32;11;11;
77777;PMS5003;66966;-34.746;138.604;2023-07-31T13:03:58;9;7;
77777;PMS5003;66966;-34.746;138.604;2023-07-31T13:06:24;8;8;
77777;PMS5003;66966;-34.746;138.604;2023-07-31T13:08:49;8;7;
77777;PMS5003;66966;-34.746;138.604;2023-07-31T13:11:15;7;6;
77777;PMS5003;66966;-34.746;138.604;2023-07-31T13:13:40;8;7;
77777;PMS5003;66966;-34.746;138.604;2023-07-31T13:16:06;9;9;
77777;PMS5003;66966;-34.746;138.604;2023-07-31T13:18:32;10;10;
77777;PMS5003;66966;-34.746;138.604;2023-07-31T13:20:58;11;9;
77777;PMS5003;66966;-34.746;138.604;2023-07-31T13:23:23;13;11;
77777;PMS5003;66966;-34.746;138.604;2023-07-31T13:25:49;13;13;
77777;PMS5003;66966;-34.746;138.604;2023-07-31T13:28:14;9;8;
77777;PMS5003;66966;-34.746;138.604;2023-07-31T13:30:40;13;11;
77777;PMS5003;66966;-34.746;138.604;2023-07-31T13:33:06;11;10;
77777;PMS5003;66966;-34.746;138.604;2023-07-31T13:35:32;11;9;
77777;PMS5003;66966;-34.746;138.604;2023-07-31T13:37:57;5;5;
77777;PMS5003;66966;-34.746;138.604;2023-07-31T13:40:23;6;6;
77777;PMS5003;66966;-34.746;138.604;2023-07-31T13:42:49;3;3;
77777;PMS5003;66966;-34.746;138.604;2023-07-31T13:45:14;5;4;
77777;PMS5003;66966;-34.746;138.604;2023-07-31T13:47:40;6;5;
77777;PMS5003;66966;-34.746;138.604;2023-07-31T13:50:06;3;3;
77777;PMS5003;66966;-34.746;138.604;2023-07-31T13:52:32;6;5;
77777;PMS5003;66966;-34.746;138.604;2023-07-31T13:54:58;3;3;
77777;PMS5003;66966;-34.746;138.604;2023-07-31T13:57:23;4;3;
77777;PMS5003;66966;-34.746;138.604;2023-07-31T13:59:49;3;2;
77777;PMS5003;66966;-34.746;138.604;2023-07-31T14:02:14;3;3;
77777;PMS5003;66966;-34.746;138.604;2023-07-31T14:04:40;5;5;
77777;PMS5003;66966;-34.746;138.604;2023-07-31T14:07:06;2;2;
77777;PMS5003;66966;-34.746;138.604;2023-07-31T14:09:32;5;4;
77777;PMS5003;66966;-34.746;138.604;2023-07-31T14:11:57;7;4;
77777;PMS5003;66966;-34.746;138.604;2023-07-31T14:14:23;3;3;
77777;PMS5003;66966;-34.746;138.604;2023-07-31T14:16:48;5;5;
77777;PMS5003;66966;-34.746;138.604;2023-07-31T14:19:14;3;2;
77777;PMS5003;66966;-34.746;138.604;2023-07-31T14:21:40;5;3;
77777;PMS5003;66966;-34.746;138.604;2023-07-31T14:24:06;4;4;
77777;PMS5003;66966;-34.746;138.604;2023-07-31T14:26:31;7;6;
77777;PMS5003;66966;-34.746;138.604;2023-07-31T14:28:57;5;4;
77777;PMS5003;66966;-34.746;138.604;2023-07-31T14:31:23;4;2;
77777;PMS5003;66966;-34.746;138.604;2023-07-31T14:33:48;5;4;
77777;PMS5003;66966;-34.746;138.604;2023-07-31T14:36:14;5;4;
77777;PMS5003;66966;-34.746;138.604;2023-07-31T14:38:40;5;5;
77777;PMS5003;66966;-34.746;138.604;2023-07-31T14:41:05;2;2;
77777;PMS5003;66966;-34.746;138.604;2023-07-31T14:43:32;3;2;
77777;PMS5003;66966;-34.746;138.604;2023-07-31T14:45:57;1;1;
77777;PMS5003;66966;-34.746;138.604;2023-07-31T14:48:23;0;0;
77777;PMS5003;66966;-34.746;138.604;2023-07-31T14:50:48;1;0;
77777;PMS5003;66966;-34.746;138.604;2023-07-31T14:53:14;1;1;
77777;PMS5003;66966;-34.746;138.604;2023-07-31T14:55:40;1;1;
77777;PMS5003;66966;-34.746;138.604;2023-07-31T14:58:05;3;0;
77777;PMS5003;66966;-34.746;138.604;2023-07-31T15:00:31;0;0;
77777;PMS5003;66966;-34.746;138.604;2023-07-31T15:02:57;0;0;
77777;PMS5003;66966;-34.746;138.604;2023-07-31T15:05:23;0;0;
77777;PMS5003;66966;-34.746;138.604;2023-07-31T15:07:49;0;0;
77777;PMS5003;66966;-34.746;138.604;2023-07-31T15:10:14;2;1;
77777;PMS5003;66966;-34.746;138.604;2023-07-31T15:12:40;1;1;
77777;PMS5003;66966;-34.746;138.604;2023-07-31T15:15:06;0;0;
77777;PMS5003;66966;-34.746;138.604;2023-07-31T15:17:31;0;0;
77777;PMS5003;66966;-34.746;138.604;2023-07-31T15:19:57;1;0;
77777;PMS5003;66966;-34.746;138.604;2023-07-31T15:22:22;0;0;
77777;PMS5003;66966;-34.746;138.604;2023-07-31T15:24:48;0;0;
77777;PMS5003;66966;-34.746;138.604;2023-07-31T15:27:14;0;0;
77777;PMS5003;66966;-34.746;138.604;2023-07-31T15:29:39;1;1;
77777;PMS5003;66966;-34.746;138.604;2023-07-31T15:32:06;0;0;
77777;PMS5003;66966;-34.746;138.604;2023-07-31T15:34:31;0;0;
77777;PMS5003;66966;-34.746;138.604;2023-07-31T15:36:56;1;0;
77777;PMS5003;66966;-34.746;138.604;2023-07-31T15:39:22;0;0;
77777;PMS5003;66966;-34.746;138.604;2023-07-31T15:41:48;0;0;
77777;PMS5003;66966;-34.746;138.604;2023-07-31T15:44:14;0;0;
77777;PMS5003;66966;-34.746;138.604;2023-07-31T15:46:39;2;0;
77777;PMS5003;66966;-34.746;138.604;2023-07-31T15:49:05;0;0;
77777;PMS5003;66966;-34.746;138.604;2023-07-31T15:51:31;1;0;
77777;PMS5003;66966;-34.746;138.604;2023-07-31T15:53:56;0;0;
77777;PMS5003;66966;-34.746;138.604;2023-07-31T15:56:22;1;1;
77777;PMS5003;66966;-34.746;138.604;2023-07-31T15:58:48;0;0;
77777;PMS5003;66966;-34.746;138.604;2023-07-31T16:01:13;0;0;
77777;PMS5003;66966;-34.746;138.604;2023-07-31T16:03:39;0;0;
77777;PMS5003;66966;-34.746;138.604;2023-07-31T16:06:05;1;0;